sensor_id;sensor_type;location;lat;lon;timestamp;temperature;humidity
76751;SHT31;65216;51.090;-115.352;2023-06-10T00:01:35;23.11;40.30
76751;SHT31;65216;51.090;-115.352;2023-06-10T00:04:03;23.10;40.39
76751;SHT31;65216;51.090;-115.352;2023-06-10T00:06:43;23.09;40.42
76751;SHT31;65216;51.090;-115.352;2023-06-10T00:09:50;23.08;40.43
76751;SHT31;65216;51.090;-115.352;2023-06-10T00:12:18;23.07;40.49
76751;SHT31;65216;51.090;-115.352;2023-06-10T00:14:45;23.07;40.44
76751;SHT31;65216;51.090;-115.352;2023-06-10T00:17:16;23.06;40.44
76751;SHT31;65216;51.090;-115.352;2023-06-10T00:19:51;23.06;40.45
76751;SHT31;65216;51.090;-115.352;2023-06-10T00:22:18;23.04;40.51
76751;SHT31;65216;51.090;-115.352;2023-06-10T00:24:45;23.03;40.56
76751;SHT31;65216;51.090;-115.352;2023-06-10T00:30:49;23.01;40.66
76751;SHT31;65216;51.090;-115.352;2023-06-10T00:33:16;23.00;40.70
76751;SHT31;65216;51.090;-115.352;2023-06-10T00:35:44;22.99;40.71
76751;SHT31;65216;51.090;-115.352;2023-06-10T00:38:14;22.99;40.77
76751;SHT31;65216;51.090;-115.352;2023-06-10T00:40:47;22.99;40.79
76751;SHT31;65216;51.090;-115.352;2023-06-10T00:43:15;22.99;40.80
76751;SHT31;65216;51.090;-115.352;2023-06-10T00:45:42;22.97;40.84
76751;SHT31;65216;51.090;-115.352;2023-06-10T00:48:09;22.97;40.90
76751;SHT31;65216;51.090;-115.352;2023-06-10T00:50:36;22.96;40.98
76751;SHT31;65216;51.090;-115.352;2023-06-10T00:53:06;22.95;40.97
76751;SHT31;65216;51.090;-115.352;2023-06-10T00:55:34;22.95;41.14
76751;SHT31;65216;51.090;-115.352;2023-06-10T00:58:08;22.93;41.28
76751;SHT31;65216;51.090;-115.352;2023-06-10T01:00:36;22.93;41.42
76751;SHT31;65216;51.090;-115.352;2023-06-10T01:03:03;22.92;41.43
76751;SHT31;65216;51.090;-115.352;2023-06-10T01:05:34;22.91;41.66
76751;SHT31;65216;51.090;-115.352;2023-06-10T01:10:50;22.91;41.64
76751;SHT31;65216;51.090;-115.352;2023-06-10T01:13:24;22.91;41.69
76751;SHT31;65216;51.090;-115.352;2023-06-10T01:15:57;22.92;41.73
76751;SHT31;65216;51.090;-115.352;2023-06-10T01:18:31;22.91;41.71
76751;SHT31;65216;51.090;-115.352;2023-06-10T01:20:58;22.92;41.77
76751;SHT31;65216;51.090;-115.352;2023-06-10T01:23:25;22.92;41.88
76751;SHT31;65216;51.090;-115.352;2023-06-10T01:25:56;22.92;41.91
76751;SHT31;65216;51.090;-115.352;2023-06-10T01:34:29;22.90;42.45
76751;SHT31;65216;51.090;-115.352;2023-06-10T01:37:03;22.90;42.65
76751;SHT31;65216;51.090;-115.352;2023-06-10T01:39:31;22.90;42.88
76751;SHT31;65216;51.090;-115.352;2023-06-10T01:41:59;22.88;43.08
76751;SHT31;65216;51.090;-115.352;2023-06-10T01:44:28;22.88;43.27
76751;SHT31;65216;51.090;-115.352;2023-06-10T01:46:55;22.88;43.41
76751;SHT31;65216;51.090;-115.352;2023-06-10T01:49:24;22.89;43.62
76751;SHT31;65216;51.090;-115.352;2023-06-10T01:51:53;22.88;43.67
76751;SHT31;65216;51.090;-115.352;2023-06-10T01:54:23;22.88;43.71
76751;SHT31;65216;51.090;-115.352;2023-06-10T01:56:53;22.89;43.73
76751;SHT31;65216;51.090;-115.352;2023-06-10T01:59:20;22.89;43.62
76751;SHT31;65216;51.090;-115.352;2023-06-10T02:01:53;22.88;43.53
76751;SHT31;65216;51.090;-115.352;2023-06-10T02:04:20;22.88;43.42
76751;SHT31;65216;51.090;-115.352;2023-06-10T02:06:47;22.88;43.25
76751;SHT31;65216;51.090;-115.352;2023-06-10T02:09:14;22.88;43.06
76751;SHT31;65216;51.090;-115.352;2023-06-10T02:11:41;22.88;42.92
76751;SHT31;65216;51.090;-115.352;2023-06-10T02:14:08;22.89;42.77
76751;SHT31;65216;51.090;-115.352;2023-06-10T02:16:35;22.89;42.56
76751;SHT31;65216;51.090;-115.352;2023-06-10T02:19:02;22.89;42.30
76751;SHT31;65216;51.090;-115.352;2023-06-10T02:21:32;22.88;42.07
76751;SHT31;65216;51.090;-115.352;2023-06-10T02:24:01;22.87;41.88
76751;SHT31;65216;51.090;-115.352;2023-06-10T02:26:34;22.85;41.68
76751;SHT31;65216;51.090;-115.352;2023-06-10T02:29:02;22.85;41.48
76751;SHT31;65216;51.090;-115.352;2023-06-10T02:31:32;22.85;41.28
76751;SHT31;65216;51.090;-115.352;2023-06-10T02:34:01;22.85;41.10
76751;SHT31;65216;51.090;-115.352;2023-06-10T02:36:29;22.84;40.97
76751;SHT31;65216;51.090;-115.352;2023-06-10T02:38:57;22.84;40.82
76751;SHT31;65216;51.090;-115.352;2023-06-10T02:41:23;22.83;40.71
76751;SHT31;65216;51.090;-115.352;2023-06-10T02:43:51;22.81;40.62
76751;SHT31;65216;51.090;-115.352;2023-06-10T02:46:21;22.81;40.54
76751;SHT31;65216;51.090;-115.352;2023-06-10T02:48:54;22.80;40.47
76751;SHT31;65216;51.090;-115.352;2023-06-10T02:51:21;22.81;40.38
76751;SHT31;65216;51.090;-115.352;2023-06-10T02:53:48;22.78;40.32
76751;SHT31;65216;51.090;-115.352;2023-06-10T02:56:18;22.77;40.29
76751;SHT31;65216;51.090;-115.352;2023-06-10T02:58:45;22.77;40.27
76751;SHT31;65216;51.090;-115.352;2023-06-10T03:01:14;22.75;40.32
76751;SHT31;65216;51.090;-115.352;2023-06-10T03:03:41;22.75;40.38
76751;SHT31;65216;51.090;-115.352;2023-06-10T03:06:11;22.72;40.40
76751;SHT31;65216;51.090;-115.352;2023-06-10T03:08:40;22.71;40.40
76751;SHT31;65216;51.090;-115.352;2023-06-10T03:11:08;22.71;40.44
76751;SHT31;65216;51.090;-115.352;2023-06-10T03:13:35;22.70;40.40
76751;SHT31;65216;51.090;-115.352;2023-06-10T03:16:04;22.68;40.42
76751;SHT31;65216;51.090;-115.352;2023-06-10T03:18:34;22.67;40.47
76751;SHT31;65216;51.090;-115.352;2023-06-10T03:21:01;22.66;40.50
76751;SHT31;65216;51.090;-115.352;2023-06-10T03:23:28;22.65;40.56
76751;SHT31;65216;51.090;-115.352;2023-06-10T03:25:55;22.64;40.68
76751;SHT31;65216;51.090;-115.352;2023-06-10T03:28:23;22.65;40.74
76751;SHT31;65216;51.090;-115.352;2023-06-10T03:30:50;22.64;40.80
76751;SHT31;65216;51.090;-115.352;2023-06-10T03:33:20;22.64;40.89
76751;SHT31;65216;51.090;-115.352;2023-06-10T03:35:47;22.63;40.96
76751;SHT31;65216;51.090;-115.352;2023-06-10T03:38:14;22.61;40.99
76751;SHT31;65216;51.090;-115.352;2023-06-10T03:40:42;22.60;41.00
76751;SHT31;65216;51.090;-115.352;2023-06-10T03:43:09;22.59;40.96
76751;SHT31;65216;51.090;-115.352;2023-06-10T03:45:36;22.60;40.91
76751;SHT31;65216;51.090;-115.352;2023-06-10T03:48:03;22.58;40.91
76751;SHT31;65216;51.090;-115.352;2023-06-10T03:50:31;22.57;40.90
76751;SHT31;65216;51.090;-115.352;2023-06-10T03:52:59;22.57;40.89
76751;SHT31;65216;51.090;-115.352;2023-06-10T03:55:26;22.56;40.90
76751;SHT31;65216;51.090;-115.352;2023-06-10T03:57:53;22.54;40.90
76751;SHT31;65216;51.090;-115.352;2023-06-10T04:00:26;22.54;40.89
76751;SHT31;65216;51.090;-115.352;2023-06-10T04:02:58;22.52;40.98
76751;SHT31;65216;51.090;-115.352;2023-06-10T04:05:25;22.52;41.06
76751;SHT31;65216;51.090;-115.352;2023-06-10T04:07:56;22.51;41.16
76751;SHT31;65216;51.090;-115.352;2023-06-10T04:10:26;22.49;41.24
76751;SHT31;65216;51.090;-115.352;2023-06-10T04:12:56;22.50;41.31
76751;SHT31;65216;51.090;-115.352;2023-06-10T04:15:26;22.48;41.35
76751;SHT31;65216;51.090;-115.352;2023-06-10T04:17:55;22.48;41.44
76751;SHT31;65216;51.090;-115.352;2023-06-10T04:20:22;22.46;41.57
76751;SHT31;65216;51.090;-115.352;2023-06-10T04:22:49;22.44;41.66
76751;SHT31;65216;51.090;-115.352;2023-06-10T04:25:18;22.44;41.61
76751;SHT31;65216;51.090;-115.352;2023-06-10T04:27:45;22.44;41.68
76751;SHT31;65216;51.090;-115.352;2023-06-10T04:30:12;22.44;41.78
76751;SHT31;65216;51.090;-115.352;2023-06-10T04:32:40;22.43;41.80
76751;SHT31;65216;51.090;-115.352;2023-06-10T04:35:08;22.42;41.82
76751;SHT31;65216;51.090;-115.352;2023-06-10T04:37:38;22.42;41.85
76751;SHT31;65216;51.090;-115.352;2023-06-10T04:40:07;22.41;41.84
76751;SHT31;65216;51.090;-115.352;2023-06-10T04:42:41;22.39;41.90
76751;SHT31;65216;51.090;-115.352;2023-06-10T04:45:11;22.39;41.90
76751;SHT31;65216;51.090;-115.352;2023-06-10T04:47:41;22.39;41.95
76751;SHT31;65216;51.090;-115.352;2023-06-10T04:50:09;22.39;41.95
76751;SHT31;65216;51.090;-115.352;2023-06-10T04:52:36;22.39;41.99
76751;SHT31;65216;51.090;-115.352;2023-06-10T04:55:03;22.38;41.93
76751;SHT31;65216;51.090;-115.352;2023-06-10T04:57:34;22.39;41.89
76751;SHT31;65216;51.090;-115.352;2023-06-10T05:00:03;22.38;41.84
76751;SHT31;65216;51.090;-115.352;2023-06-10T05:02:31;22.38;41.81
76751;SHT31;65216;51.090;-115.352;2023-06-10T05:04:58;22.37;41.80
76751;SHT31;65216;51.090;-115.352;2023-06-10T05:07:26;22.37;41.79
76751;SHT31;65216;51.090;-115.352;2023-06-10T05:09:53;22.36;41.82
76751;SHT31;65216;51.090;-115.352;2023-06-10T05:12:20;22.35;41.87
76751;SHT31;65216;51.090;-115.352;2023-06-10T05:14:52;22.34;41.99
76751;SHT31;65216;51.090;-115.352;2023-06-10T05:17:22;22.34;42.02
76751;SHT31;65216;51.090;-115.352;2023-06-10T05:19:50;22.34;42.11
76751;SHT31;65216;51.090;-115.352;2023-06-10T05:22:18;22.34;42.14
76751;SHT31;65216;51.090;-115.352;2023-06-10T05:24:45;22.34;42.19
76751;SHT31;65216;51.090;-115.352;2023-06-10T05:27:15;22.32;42.25
76751;SHT31;65216;51.090;-115.352;2023-06-10T05:29:42;22.32;42.30
76751;SHT31;65216;51.090;-115.352;2023-06-10T05:32:11;22.32;42.35
76751;SHT31;65216;51.090;-115.352;2023-06-10T05:34:37;22.31;42.44
76751;SHT31;65216;51.090;-115.352;2023-06-10T05:37:05;22.31;42.51
76751;SHT31;65216;51.090;-115.352;2023-06-10T05:39:35;22.28;42.48
76751;SHT31;65216;51.090;-115.352;2023-06-10T05:42:08;22.29;42.54
76751;SHT31;65216;51.090;-115.352;2023-06-10T05:44:35;22.28;42.92
76751;SHT31;65216;51.090;-115.352;2023-06-10T05:47:03;22.29;43.40
76751;SHT31;65216;51.090;-115.352;2023-06-10T05:49:30;22.28;43.33
76751;SHT31;65216;51.090;-115.352;2023-06-10T05:51:57;22.27;43.45
76751;SHT31;65216;51.090;-115.352;2023-06-10T05:54:25;22.26;43.13
76751;SHT31;65216;51.090;-115.352;2023-06-10T05:56:52;22.26;43.09
76751;SHT31;65216;51.090;-115.352;2023-06-10T05:59:19;22.26;43.17
76751;SHT31;65216;51.090;-115.352;2023-06-10T06:01:49;22.27;43.11
76751;SHT31;65216;51.090;-115.352;2023-06-10T06:04:16;22.26;43.10
76751;SHT31;65216;51.090;-115.352;2023-06-10T06:06:43;22.26;43.05
76751;SHT31;65216;51.090;-115.352;2023-06-10T06:09:10;22.26;43.01
76751;SHT31;65216;51.090;-115.352;2023-06-10T06:11:38;22.26;43.01
76751;SHT31;65216;51.090;-115.352;2023-06-10T06:14:05;22.25;43.03
76751;SHT31;65216;51.090;-115.352;2023-06-10T06:16:34;22.24;43.00
76751;SHT31;65216;51.090;-115.352;2023-06-10T06:19:01;22.24;43.01
76751;SHT31;65216;51.090;-115.352;2023-06-10T06:21:28;22.22;43.05
76751;SHT31;65216;51.090;-115.352;2023-06-10T06:23:55;22.22;43.10
76751;SHT31;65216;51.090;-115.352;2023-06-10T06:26:23;22.22;43.08
76751;SHT31;65216;51.090;-115.352;2023-06-10T06:28:51;22.23;43.10
76751;SHT31;65216;51.090;-115.352;2023-06-10T06:31:18;22.23;43.10
76751;SHT31;65216;51.090;-115.352;2023-06-10T06:33:45;22.24;43.16
76751;SHT31;65216;51.090;-115.352;2023-06-10T06:36:12;22.22;43.19
76751;SHT31;65216;51.090;-115.352;2023-06-10T06:38:42;22.20;43.20
76751;SHT31;65216;51.090;-115.352;2023-06-10T06:41:09;22.20;43.20
76751;SHT31;65216;51.090;-115.352;2023-06-10T06:43:36;22.19;43.20
76751;SHT31;65216;51.090;-115.352;2023-06-10T06:46:03;22.19;43.20
76751;SHT31;65216;51.090;-115.352;2023-06-10T06:48:31;22.19;43.20
76751;SHT31;65216;51.090;-115.352;2023-06-10T06:51:01;22.20;43.20
76751;SHT31;65216;51.090;-115.352;2023-06-10T06:53:31;22.19;43.22
76751;SHT31;65216;51.090;-115.352;2023-06-10T06:55:58;22.17;43.26
76751;SHT31;65216;51.090;-115.352;2023-06-10T06:58:26;22.17;43.29
76751;SHT31;65216;51.090;-115.352;2023-06-10T07:00:53;22.17;43.30
76751;SHT31;65216;51.090;-115.352;2023-06-10T07:03:20;22.16;43.28
76751;SHT31;65216;51.090;-115.352;2023-06-10T07:05:47;22.16;43.22
76751;SHT31;65216;51.090;-115.352;2023-06-10T07:08:14;22.16;43.20
76751;SHT31;65216;51.090;-115.352;2023-06-10T07:10:41;22.15;43.19
76751;SHT31;65216;51.090;-115.352;2023-06-10T07:13:08;22.14;43.19
76751;SHT31;65216;51.090;-115.352;2023-06-10T07:15:36;22.14;43.18
76751;SHT31;65216;51.090;-115.352;2023-06-10T07:18:07;22.14;43.20
76751;SHT31;65216;51.090;-115.352;2023-06-10T07:20:34;22.13;43.19
76751;SHT31;65216;51.090;-115.352;2023-06-10T07:23:01;22.13;43.19
76751;SHT31;65216;51.090;-115.352;2023-06-10T07:25:28;22.13;43.16
76751;SHT31;65216;51.090;-115.352;2023-06-10T07:27:55;22.12;43.10
76751;SHT31;65216;51.090;-115.352;2023-06-10T07:30:22;22.14;43.03
76751;SHT31;65216;51.090;-115.352;2023-06-10T07:32:50;22.12;43.00
76751;SHT31;65216;51.090;-115.352;2023-06-10T07:35:17;22.13;42.96
76751;SHT31;65216;51.090;-115.352;2023-06-10T07:37:44;22.11;42.92
76751;SHT31;65216;51.090;-115.352;2023-06-10T07:40:11;22.11;42.91
76751;SHT31;65216;51.090;-115.352;2023-06-10T07:42:39;22.10;42.88
76751;SHT31;65216;51.090;-115.352;2023-06-10T07:45:07;22.09;42.87
76751;SHT31;65216;51.090;-115.352;2023-06-10T07:47:34;22.10;42.85
76751;SHT31;65216;51.090;-115.352;2023-06-10T07:50:02;22.09;42.88
76751;SHT31;65216;51.090;-115.352;2023-06-10T07:52:29;22.09;42.87
76751;SHT31;65216;51.090;-115.352;2023-06-10T07:54:56;22.08;42.89
76751;SHT31;65216;51.090;-115.352;2023-06-10T07:57:23;22.08;42.86
76751;SHT31;65216;51.090;-115.352;2023-06-10T07:59:50;22.07;42.88
76751;SHT31;65216;51.090;-115.352;2023-06-10T08:02:17;22.08;42.80
76751;SHT31;65216;51.090;-115.352;2023-06-10T08:04:44;22.07;42.84
76751;SHT31;65216;51.090;-115.352;2023-06-10T08:07:12;22.06;42.83
76751;SHT31;65216;51.090;-115.352;2023-06-10T08:09:39;22.06;42.81
76751;SHT31;65216;51.090;-115.352;2023-06-10T08:12:06;22.06;42.80
76751;SHT31;65216;51.090;-115.352;2023-06-10T08:14:33;22.05;42.77
76751;SHT31;65216;51.090;-115.352;2023-06-10T08:17:02;22.05;42.73
76751;SHT31;65216;51.090;-115.352;2023-06-10T08:19:31;22.04;42.68
76751;SHT31;65216;51.090;-115.352;2023-06-10T08:21:58;22.05;42.61
76751;SHT31;65216;51.090;-115.352;2023-06-10T08:24:25;22.04;42.54
76751;SHT31;65216;51.090;-115.352;2023-06-10T08:26:55;22.05;42.50
76751;SHT31;65216;51.090;-115.352;2023-06-10T08:29:23;22.03;42.46
76751;SHT31;65216;51.090;-115.352;2023-06-10T08:31:51;22.02;42.40
76751;SHT31;65216;51.090;-115.352;2023-06-10T08:34:18;22.03;42.32
76751;SHT31;65216;51.090;-115.352;2023-06-10T08:36:45;22.01;42.31
76751;SHT31;65216;51.090;-115.352;2023-06-10T08:39:13;22.00;42.29
76751;SHT31;65216;51.090;-115.352;2023-06-10T08:41:42;22.00;42.23
76751;SHT31;65216;51.090;-115.352;2023-06-10T08:44:17;21.99;42.22
76751;SHT31;65216;51.090;-115.352;2023-06-10T08:46:59;21.99;42.20
76751;SHT31;65216;51.090;-115.352;2023-06-10T08:49:27;21.99;42.19
76751;SHT31;65216;51.090;-115.352;2023-06-10T08:51:59;21.99;42.16
76751;SHT31;65216;51.090;-115.352;2023-06-10T08:54:32;21.98;42.10
76751;SHT31;65216;51.090;-115.352;2023-06-10T08:57:03;21.98;42.10
76751;SHT31;65216;51.090;-115.352;2023-06-10T08:59:32;21.97;42.07
76751;SHT31;65216;51.090;-115.352;2023-06-10T09:01:59;21.96;42.01
76751;SHT31;65216;51.090;-115.352;2023-06-10T09:04:30;21.96;41.95
76751;SHT31;65216;51.090;-115.352;2023-06-10T09:06:57;21.96;41.93
76751;SHT31;65216;51.090;-115.352;2023-06-10T09:09:25;21.95;41.91
76751;SHT31;65216;51.090;-115.352;2023-06-10T09:11:57;21.95;41.91
76751;SHT31;65216;51.090;-115.352;2023-06-10T09:14:25;21.95;41.91
76751;SHT31;65216;51.090;-115.352;2023-06-10T09:16:55;21.93;41.90
76751;SHT31;65216;51.090;-115.352;2023-06-10T09:19:23;21.95;41.90
76751;SHT31;65216;51.090;-115.352;2023-06-10T09:21:54;21.95;41.88
76751;SHT31;65216;51.090;-115.352;2023-06-10T09:24:24;21.94;41.83
76751;SHT31;65216;51.090;-115.352;2023-06-10T09:27:05;21.95;41.80
76751;SHT31;65216;51.090;-115.352;2023-06-10T09:29:47;21.95;41.75
76751;SHT31;65216;51.090;-115.352;2023-06-10T09:32:19;21.93;41.73
76751;SHT31;65216;51.090;-115.352;2023-06-10T09:34:47;21.92;41.76
76751;SHT31;65216;51.090;-115.352;2023-06-10T09:37:22;21.93;41.79
76751;SHT31;65216;51.090;-115.352;2023-06-10T09:40:06;21.91;41.76
76751;SHT31;65216;51.090;-115.352;2023-06-10T09:42:36;21.91;41.81
76751;SHT31;65216;51.090;-115.352;2023-06-10T09:45:06;21.90;41.80
76751;SHT31;65216;51.090;-115.352;2023-06-10T09:47:33;21.90;41.81
76751;SHT31;65216;51.090;-115.352;2023-06-10T09:50:01;21.89;41.81
76751;SHT31;65216;51.090;-115.352;2023-06-10T09:52:29;21.89;41.85
76751;SHT31;65216;51.090;-115.352;2023-06-10T09:55:00;21.88;41.83
76751;SHT31;65216;51.090;-115.352;2023-06-10T09:57:31;21.88;41.83
76751;SHT31;65216;51.090;-115.352;2023-06-10T10:00:05;21.88;41.81
76751;SHT31;65216;51.090;-115.352;2023-06-10T10:05:15;21.87;41.79
76751;SHT31;65216;51.090;-115.352;2023-06-10T10:07:45;21.87;41.77
76751;SHT31;65216;51.090;-115.352;2023-06-10T10:10:14;21.89;41.75
76751;SHT31;65216;51.090;-115.352;2023-06-10T10:12:43;21.88;41.80
76751;SHT31;65216;51.090;-115.352;2023-06-10T10:15:15;21.87;41.79
76751;SHT31;65216;51.090;-115.352;2023-06-10T10:20:33;21.83;41.80
76751;SHT31;65216;51.090;-115.352;2023-06-10T10:23:12;21.81;41.83
76751;SHT31;65216;51.090;-115.352;2023-06-10T10:25:51;21.78;41.87
76751;SHT31;65216;51.090;-115.352;2023-06-10T10:28:21;21.75;41.90
76751;SHT31;65216;51.090;-115.352;2023-06-10T10:31:02;21.75;41.90
76751;SHT31;65216;51.090;-115.352;2023-06-10T10:33:39;21.73;41.93
76751;SHT31;65216;51.090;-115.352;2023-06-10T10:36:35;21.70;41.96
76751;SHT31;65216;51.090;-115.352;2023-06-10T10:39:04;21.69;41.94
76751;SHT31;65216;51.090;-115.352;2023-06-10T10:41:31;21.67;41.96
76751;SHT31;65216;51.090;-115.352;2023-06-10T10:44:03;21.65;41.95
76751;SHT31;65216;51.090;-115.352;2023-06-10T10:46:42;21.66;41.92
76751;SHT31;65216;51.090;-115.352;2023-06-10T10:49:16;21.64;41.93
76751;SHT31;65216;51.090;-115.352;2023-06-10T10:51:57;21.61;41.96
76751;SHT31;65216;51.090;-115.352;2023-06-10T10:54:30;21.59;42.00
76751;SHT31;65216;51.090;-115.352;2023-06-10T10:59:50;21.59;42.05
76751;SHT31;65216;51.090;-115.352;2023-06-10T11:02:32;21.57;42.11
76751;SHT31;65216;51.090;-115.352;2023-06-10T11:05:14;21.55;42.16
76751;SHT31;65216;51.090;-115.352;2023-06-10T11:07:51;21.54;42.20
76751;SHT31;65216;51.090;-115.352;2023-06-10T11:10:34;21.54;42.23
76751;SHT31;65216;51.090;-115.352;2023-06-10T11:15:46;21.51;42.30
76751;SHT31;65216;51.090;-115.352;2023-06-10T11:18:21;21.50;42.32
76751;SHT31;65216;51.090;-115.352;2023-06-10T11:21:03;21.48;42.34
76751;SHT31;65216;51.090;-115.352;2023-06-10T11:23:35;21.48;42.34
76751;SHT31;65216;51.090;-115.352;2023-06-10T11:29:10;21.45;42.39
76751;SHT31;65216;51.090;-115.352;2023-06-10T11:31:39;21.44;42.40
76751;SHT31;65216;51.090;-115.352;2023-06-10T11:34:09;21.43;42.41
76751;SHT31;65216;51.090;-115.352;2023-06-10T11:36:37;21.43;42.45
76751;SHT31;65216;51.090;-115.352;2023-06-10T11:39:10;21.43;42.45
76751;SHT31;65216;51.090;-115.352;2023-06-10T11:41:38;21.43;42.46
76751;SHT31;65216;51.090;-115.352;2023-06-10T11:44:10;21.42;42.50
76751;SHT31;65216;51.090;-115.352;2023-06-10T11:46:39;21.42;42.52
76751;SHT31;65216;51.090;-115.352;2023-06-10T11:49:11;21.41;42.54
76751;SHT31;65216;51.090;-115.352;2023-06-10T11:51:38;21.40;42.56
76751;SHT31;65216;51.090;-115.352;2023-06-10T11:54:14;21.40;42.60
76751;SHT31;65216;51.090;-115.352;2023-06-10T11:56:44;21.38;42.63
76751;SHT31;65216;51.090;-115.352;2023-06-10T11:59:13;21.38;42.70
76751;SHT31;65216;51.090;-115.352;2023-06-10T12:01:44;21.38;42.71
76751;SHT31;65216;51.090;-115.352;2023-06-10T12:04:12;21.37;42.72
76751;SHT31;65216;51.090;-115.352;2023-06-10T12:09:45;21.38;42.78
76751;SHT31;65216;51.090;-115.352;2023-06-10T12:12:08;21.37;42.80
76751;SHT31;65216;51.090;-115.352;2023-06-10T12:14:50;21.36;42.83
76751;SHT31;65216;51.090;-115.352;2023-06-10T12:19:59;21.34;42.87
76751;SHT31;65216;51.090;-115.352;2023-06-10T12:22:42;21.34;42.85
76751;SHT31;65216;51.090;-115.352;2023-06-10T12:25:14;21.33;42.87
76751;SHT31;65216;51.090;-115.352;2023-06-10T12:27:51;21.31;42.90
76751;SHT31;65216;51.090;-115.352;2023-06-10T12:30:20;21.30;42.90
76751;SHT31;65216;51.090;-115.352;2023-06-10T12:32:51;21.28;42.91
76751;SHT31;65216;51.090;-115.352;2023-06-10T12:35:20;21.28;42.93
76751;SHT31;65216;51.090;-115.352;2023-06-10T12:38:03;21.28;42.95
76751;SHT31;65216;51.090;-115.352;2023-06-10T12:43:08;21.26;43.02
76751;SHT31;65216;51.090;-115.352;2023-06-10T12:45:37;21.24;43.08
76751;SHT31;65216;51.090;-115.352;2023-06-10T12:48:10;21.24;43.11
76751;SHT31;65216;51.090;-115.352;2023-06-10T12:50:52;21.23;43.11
76751;SHT31;65216;51.090;-115.352;2023-06-10T12:53:21;21.24;43.11
76751;SHT31;65216;51.090;-115.352;2023-06-10T12:55:54;21.24;43.10
76751;SHT31;65216;51.090;-115.352;2023-06-10T12:58:23;21.24;43.06
76751;SHT31;65216;51.090;-115.352;2023-06-10T13:00:52;21.26;43.04
76751;SHT31;65216;51.090;-115.352;2023-06-10T13:03:19;21.27;43.00
76751;SHT31;65216;51.090;-115.352;2023-06-10T13:05:50;21.28;42.99
76751;SHT31;65216;51.090;-115.352;2023-06-10T13:08:22;21.29;42.94
76751;SHT31;65216;51.090;-115.352;2023-06-10T13:10:50;21.31;42.96
76751;SHT31;65216;51.090;-115.352;2023-06-10T13:13:20;21.30;42.91
76751;SHT31;65216;51.090;-115.352;2023-06-10T13:15:51;21.31;42.82
76751;SHT31;65216;51.090;-115.352;2023-06-10T13:18:21;21.31;42.81
76751;SHT31;65216;51.090;-115.352;2023-06-10T13:20:48;21.32;42.80
76751;SHT31;65216;51.090;-115.352;2023-06-10T13:23:18;21.33;42.81
76751;SHT31;65216;51.090;-115.352;2023-06-10T13:25:45;21.35;42.77
76751;SHT31;65216;51.090;-115.352;2023-06-10T13:28:13;21.35;42.76
76751;SHT31;65216;51.090;-115.352;2023-06-10T13:30:40;21.35;42.80
76751;SHT31;65216;51.090;-115.352;2023-06-10T13:33:07;21.35;42.80
76751;SHT31;65216;51.090;-115.352;2023-06-10T13:35:37;21.34;42.81
76751;SHT31;65216;51.090;-115.352;2023-06-10T13:38:08;21.35;42.80
76751;SHT31;65216;51.090;-115.352;2023-06-10T13:40:38;21.35;42.81
76751;SHT31;65216;51.090;-115.352;2023-06-10T13:43:08;21.35;42.80
76751;SHT31;65216;51.090;-115.352;2023-06-10T13:45:35;21.36;42.79
76751;SHT31;65216;51.090;-115.352;2023-06-10T13:48:02;21.35;42.74
76751;SHT31;65216;51.090;-115.352;2023-06-10T13:50:33;21.36;42.76
76751;SHT31;65216;51.090;-115.352;2023-06-10T13:53:01;21.37;42.71
76751;SHT31;65216;51.090;-115.352;2023-06-10T13:55:28;21.37;42.71
76751;SHT31;65216;51.090;-115.352;2023-06-10T13:57:55;21.37;42.71
76751;SHT31;65216;51.090;-115.352;2023-06-10T14:00:25;21.37;42.71
76751;SHT31;65216;51.090;-115.352;2023-06-10T14:02:52;21.37;42.81
76751;SHT31;65216;51.090;-115.352;2023-06-10T14:05:22;21.38;42.83
76751;SHT31;65216;51.090;-115.352;2023-06-10T14:07:49;21.38;42.92
76751;SHT31;65216;51.090;-115.352;2023-06-10T14:10:16;21.38;43.01
76751;SHT31;65216;51.090;-115.352;2023-06-10T14:12:43;21.36;43.08
76751;SHT31;65216;51.090;-115.352;2023-06-10T14:15:11;21.38;43.10
76751;SHT31;65216;51.090;-115.352;2023-06-10T14:17:40;21.38;43.18
76751;SHT31;65216;51.090;-115.352;2023-06-10T14:20:08;21.39;43.15
76751;SHT31;65216;51.090;-115.352;2023-06-10T14:22:35;21.40;43.23
76751;SHT31;65216;51.090;-115.352;2023-06-10T14:25:05;21.39;43.30
76751;SHT31;65216;51.090;-115.352;2023-06-10T14:30:30;21.39;43.40
76751;SHT31;65216;51.090;-115.352;2023-06-10T14:32:57;21.41;43.37
76751;SHT31;65216;51.090;-115.352;2023-06-10T14:35:24;21.41;43.39
76751;SHT31;65216;51.090;-115.352;2023-06-10T14:37:51;21.41;43.38
76751;SHT31;65216;51.090;-115.352;2023-06-10T14:40:19;21.42;43.36
76751;SHT31;65216;51.090;-115.352;2023-06-10T14:42:54;21.43;43.39
76751;SHT31;65216;51.090;-115.352;2023-06-10T14:45:40;21.44;43.40
76751;SHT31;65216;51.090;-115.352;2023-06-10T14:48:09;21.44;43.37
76751;SHT31;65216;51.090;-115.352;2023-06-10T14:50:37;21.44;43.41
76751;SHT31;65216;51.090;-115.352;2023-06-10T14:53:06;21.45;43.40
76751;SHT31;65216;51.090;-115.352;2023-06-10T14:55:33;21.47;43.39
76751;SHT31;65216;51.090;-115.352;2023-06-10T14:58:04;21.48;43.34
76751;SHT31;65216;51.090;-115.352;2023-06-10T15:00:31;21.49;43.30
76751;SHT31;65216;51.090;-115.352;2023-06-10T15:02:58;21.51;43.33
76751;SHT31;65216;51.090;-115.352;2023-06-10T15:05:25;21.52;43.38
76751;SHT31;65216;51.090;-115.352;2023-06-10T15:07:56;21.52;43.32
76751;SHT31;65216;51.090;-115.352;2023-06-10T15:10:26;21.53;43.38
76751;SHT31;65216;51.090;-115.352;2023-06-10T15:12:55;21.54;43.36
76751;SHT31;65216;51.090;-115.352;2023-06-10T15:15:23;21.55;43.43
76751;SHT31;65216;51.090;-115.352;2023-06-10T15:17:51;21.56;43.52
76751;SHT31;65216;51.090;-115.352;2023-06-10T15:20:22;21.56;43.53
76751;SHT31;65216;51.090;-115.352;2023-06-10T15:22:48;21.57;43.58
76751;SHT31;65216;51.090;-115.352;2023-06-10T15:25:19;21.59;43.54
76751;SHT31;65216;51.090;-115.352;2023-06-10T15:27:46;21.60;43.52
76751;SHT31;65216;51.090;-115.352;2023-06-10T15:30:16;21.61;43.49
76751;SHT31;65216;51.090;-115.352;2023-06-10T15:32:44;21.61;43.49
76751;SHT31;65216;51.090;-115.352;2023-06-10T15:35:17;21.62;43.46
76751;SHT31;65216;51.090;-115.352;2023-06-10T15:37:54;21.63;43.54
76751;SHT31;65216;51.090;-115.352;2023-06-10T15:58:17;21.72;43.77